sensor_id;sensor_type;location;lat;lon;timestamp;P1;durP1;ratioP1;P2;durP2;ratioP2
10769;SDS011;5437;50.852;4.438;2022-12-07T00:01:35;13.82;;;9.57;;
10769;SDS011;5437;50.852;4.438;2022-12-07T00:04:03;11.85;;;9.98;;
10769;SDS011;5437;50.852;4.438;2022-12-07T00:06:30;14.48;;;10.43;;
10769;SDS011;5437;50.852;4.438;2022-12-07T00:08:56;11.75;;;9.65;;
10769;SDS011;5437;50.852;4.438;2022-12-07T00:11:22;12.73;;;9.70;;
10769;SDS011;5437;50.852;4.438;2022-12-07T00:13:53;13.65;;;9.75;;
10769;SDS011;5437;50.852;4.438;2022-12-07T00:16:19;11.93;;;10.15;;
10769;SDS011;5437;50.852;4.438;2022-12-07T00:18:46;14.88;;;11.15;;
10769;SDS011;5437;50.852;4.438;2022-12-07T00:21:13;12.55;;;10.68;;
10769;SDS011;5437;50.852;4.438;2022-12-07T00:23:39;15.93;;;10.77;;
10769;SDS011;5437;50.852;4.438;2022-12-07T00:26:06;14.60;;;10.45;;
10769;SDS011;5437;50.852;4.438;2022-12-07T00:28:32;14.35;;;10.65;;
10769;SDS011;5437;50.852;4.438;2022-12-07T00:31:11;12.50;;;10.45;;
10769;SDS011;5437;50.852;4.438;2022-12-07T00:33:37;13.35;;;10.43;;
10769;SDS011;5437;50.852;4.438;2022-12-07T00:36:05;12.98;;;10.45;;
10769;SDS011;5437;50.852;4.438;2022-12-07T00:38:33;11.25;;;10.00;;
10769;SDS011;5437;50.852;4.438;2022-12-07T00:41:03;13.25;;;10.68;;
10769;SDS011;5437;50.852;4.438;2022-12-07T00:43:30;12.52;;;9.88;;
10769;SDS011;5437;50.852;4.438;2022-12-07T00:45:56;12.13;;;9.82;;
10769;SDS011;5437;50.852;4.438;2022-12-07T00:48:23;14.82;;;10.32;;
10769;SDS011;5437;50.852;4.438;2022-12-07T00:50:49;11.60;;;10.25;;
10769;SDS011;5437;50.852;4.438;2022-12-07T00:53:15;13.65;;;10.52;;
10769;SDS011;5437;50.852;4.438;2022-12-07T00:55:42;12.75;;;10.75;;
10769;SDS011;5437;50.852;4.438;2022-12-07T00:58:08;13.63;;;10.60;;
10769;SDS011;5437;50.852;4.438;2022-12-07T01:00:35;13.57;;;10.85;;
10769;SDS011;5437;50.852;4.438;2022-12-07T01:03:02;13.23;;;10.57;;
10769;SDS011;5437;50.852;4.438;2022-12-07T01:05:29;13.15;;;11.27;;
10769;SDS011;5437;50.852;4.438;2022-12-07T01:07:55;12.85;;;10.23;;
10769;SDS011;5437;50.852;4.438;2022-12-07T01:10:21;13.85;;;11.13;;
10769;SDS011;5437;50.852;4.438;2022-12-07T01:12:47;13.10;;;11.10;;
10769;SDS011;5437;50.852;4.438;2022-12-07T01:15:13;13.50;;;11.68;;
10769;SDS011;5437;50.852;4.438;2022-12-07T01:17:39;15.20;;;11.52;;
10769;SDS011;5437;50.852;4.438;2022-12-07T01:20:05;14.98;;;11.88;;
10769;SDS011;5437;50.852;4.438;2022-12-07T01:22:35;15.73;;;12.77;;
10769;SDS011;5437;50.852;4.438;2022-12-07T01:25:01;15.13;;;11.75;;
10769;SDS011;5437;50.852;4.438;2022-12-07T01:27:27;17.02;;;12.18;;
10769;SDS011;5437;50.852;4.438;2022-12-07T01:29:53;17.30;;;12.18;;
10769;SDS011;5437;50.852;4.438;2022-12-07T01:32:19;16.88;;;12.93;;
10769;SDS011;5437;50.852;4.438;2022-12-07T01:34:47;14.75;;;11.98;;
10769;SDS011;5437;50.852;4.438;2022-12-07T01:37:13;16.20;;;12.25;;
10769;SDS011;5437;50.852;4.438;2022-12-07T01:39:39;14.45;;;12.15;;
10769;SDS011;5437;50.852;4.438;2022-12-07T01:42:09;15.95;;;12.13;;
10769;SDS011;5437;50.852;4.438;2022-12-07T01:45:15;16.05;;;12.65;;
10769;SDS011;5437;50.852;4.438;2022-12-07T01:47:21;14.75;;;12.38;;
10769;SDS011;5437;50.852;4.438;2022-12-07T01:49:47;15.20;;;11.85;;
10769;SDS011;5437;50.852;4.438;2022-12-07T01:52:28;14.48;;;11.55;;
10769;SDS011;5437;50.852;4.438;2022-12-07T01:54:56;14.95;;;11.10;;
10769;SDS011;5437;50.852;4.438;2022-12-07T01:57:23;14.63;;;11.77;;
10769;SDS011;5437;50.852;4.438;2022-12-07T01:59:49;11.90;;;10.70;;
10769;SDS011;5437;50.852;4.438;2022-12-07T02:02:18;14.68;;;11.60;;
10769;SDS011;5437;50.852;4.438;2022-12-07T02:04:45;14.23;;;10.45;;
10769;SDS011;5437;50.852;4.438;2022-12-07T02:07:11;13.52;;;11.02;;
10769;SDS011;5437;50.852;4.438;2022-12-07T02:09:37;14.57;;;10.90;;
10769;SDS011;5437;50.852;4.438;2022-12-07T02:12:04;14.70;;;10.57;;
10769;SDS011;5437;50.852;4.438;2022-12-07T02:14:30;13.13;;;10.95;;
10769;SDS011;5437;50.852;4.438;2022-12-07T02:17:13;12.10;;;10.07;;
10769;SDS011;5437;50.852;4.438;2022-12-07T02:30:25;12.80;;;9.55;;
10769;SDS011;5437;50.852;4.438;2022-12-07T02:38:08;11.70;;;9.60;;
10769;SDS011;5437;50.852;4.438;2022-12-07T02:43:04;12.27;;;9.65;;
10769;SDS011;5437;50.852;4.438;2022-12-07T02:45:32;12.73;;;9.80;;
10769;SDS011;5437;50.852;4.438;2022-12-07T02:48:00;12.32;;;10.23;;
10769;SDS011;5437;50.852;4.438;2022-12-07T02:50:26;12.40;;;9.93;;
10769;SDS011;5437;50.852;4.438;2022-12-07T02:52:52;11.82;;;10.07;;
10769;SDS011;5437;50.852;4.438;2022-12-07T02:55:19;11.57;;;9.88;;
10769;SDS011;5437;50.852;4.438;2022-12-07T03:00:21;11.18;;;9.07;;
10769;SDS011;5437;50.852;4.438;2022-12-07T03:03:00;10.18;;;8.18;;
10769;SDS011;5437;50.852;4.438;2022-12-07T03:15:43;11.32;;;8.32;;
10769;SDS011;5437;50.852;4.438;2022-12-07T03:18:12;11.70;;;8.68;;
10769;SDS011;5437;50.852;4.438;2022-12-07T03:20:39;11.48;;;8.15;;
10769;SDS011;5437;50.852;4.438;2022-12-07T03:23:06;11.35;;;8.48;;
10769;SDS011;5437;50.852;4.438;2022-12-07T03:25:34;11.00;;;8.45;;
10769;SDS011;5437;50.852;4.438;2022-12-07T03:28:02;8.95;;;7.85;;
10769;SDS011;5437;50.852;4.438;2022-12-07T03:30:42;10.93;;;8.18;;
10769;SDS011;5437;50.852;4.438;2022-12-07T03:33:13;10.32;;;7.25;;
10769;SDS011;5437;50.852;4.438;2022-12-07T03:35:48;11.60;;;8.30;;
10769;SDS011;5437;50.852;4.438;2022-12-07T03:38:22;10.63;;;8.23;;
10769;SDS011;5437;50.852;4.438;2022-12-07T03:40:50;8.68;;;7.20;;
10769;SDS011;5437;50.852;4.438;2022-12-07T03:43:18;9.15;;;7.40;;
10769;SDS011;5437;50.852;4.438;2022-12-07T03:45:49;9.80;;;7.55;;
10769;SDS011;5437;50.852;4.438;2022-12-07T03:48:32;10.82;;;7.65;;
10769;SDS011;5437;50.852;4.438;2022-12-07T03:53:46;8.73;;;7.07;;
10769;SDS011;5437;50.852;4.438;2022-12-07T03:56:12;9.85;;;7.15;;
10769;SDS011;5437;50.852;4.438;2022-12-07T03:58:39;8.35;;;7.55;;
10769;SDS011;5437;50.852;4.438;2022-12-07T04:01:05;10.45;;;7.22;;
10769;SDS011;5437;50.852;4.438;2022-12-07T04:03:31;8.13;;;6.75;;
10769;SDS011;5437;50.852;4.438;2022-12-07T04:05:57;9.40;;;6.78;;
10769;SDS011;5437;50.852;4.438;2022-12-07T04:08:24;9.15;;;6.70;;
10769;SDS011;5437;50.852;4.438;2022-12-07T04:10:51;9.18;;;6.90;;
10769;SDS011;5437;50.852;4.438;2022-12-07T04:13:17;9.73;;;7.07;;
10769;SDS011;5437;50.852;4.438;2022-12-07T04:15:43;8.98;;;6.97;;
10769;SDS011;5437;50.852;4.438;2022-12-07T04:18:09;10.88;;;7.55;;
10769;SDS011;5437;50.852;4.438;2022-12-07T04:20:35;9.88;;;7.30;;
10769;SDS011;5437;50.852;4.438;2022-12-07T04:23:01;11.25;;;8.15;;
10769;SDS011;5437;50.852;4.438;2022-12-07T04:25:27;10.93;;;7.70;;
10769;SDS011;5437;50.852;4.438;2022-12-07T04:27:53;10.02;;;7.22;;
10769;SDS011;5437;50.852;4.438;2022-12-07T04:30:19;11.68;;;7.78;;
10769;SDS011;5437;50.852;4.438;2022-12-07T04:32:45;10.15;;;7.47;;
10769;SDS011;5437;50.852;4.438;2022-12-07T04:35:11;10.32;;;7.15;;
10769;SDS011;5437;50.852;4.438;2022-12-07T04:37:37;9.55;;;7.90;;
10769;SDS011;5437;50.852;4.438;2022-12-07T04:40:07;12.60;;;8.15;;
10769;SDS011;5437;50.852;4.438;2022-12-07T04:42:33;10.57;;;7.28;;
10769;SDS011;5437;50.852;4.438;2022-12-07T04:44:59;9.43;;;7.18;;
10769;SDS011;5437;50.852;4.438;2022-12-07T04:47:25;10.10;;;7.50;;
10769;SDS011;5437;50.852;4.438;2022-12-07T04:49:51;9.70;;;7.45;;
10769;SDS011;5437;50.852;4.438;2022-12-07T04:52:17;12.07;;;8.85;;
10769;SDS011;5437;50.852;4.438;2022-12-07T04:54:43;10.65;;;8.75;;
10769;SDS011;5437;50.852;4.438;2022-12-07T04:57:09;11.73;;;9.07;;
10769;SDS011;5437;50.852;4.438;2022-12-07T04:59:35;10.25;;;8.45;;
10769;SDS011;5437;50.852;4.438;2022-12-07T05:02:01;11.45;;;8.88;;
10769;SDS011;5437;50.852;4.438;2022-12-07T05:04:27;11.15;;;9.15;;
10769;SDS011;5437;50.852;4.438;2022-12-07T05:06:53;13.88;;;8.95;;
10769;SDS011;5437;50.852;4.438;2022-12-07T05:09:19;10.32;;;9.20;;
10769;SDS011;5437;50.852;4.438;2022-12-07T05:11:45;11.85;;;8.88;;
10769;SDS011;5437;50.852;4.438;2022-12-07T05:14:13;14.88;;;9.40;;
10769;SDS011;5437;50.852;4.438;2022-12-07T05:16:39;10.23;;;9.00;;
10769;SDS011;5437;50.852;4.438;2022-12-07T05:19:06;11.25;;;8.73;;
10769;SDS011;5437;50.852;4.438;2022-12-07T05:21:32;11.23;;;8.52;;
10769;SDS011;5437;50.852;4.438;2022-12-07T05:23:58;12.00;;;8.60;;
10769;SDS011;5437;50.852;4.438;2022-12-07T05:26:24;12.85;;;8.90;;
10769;SDS011;5437;50.852;4.438;2022-12-07T05:28:53;10.27;;;8.88;;
10769;SDS011;5437;50.852;4.438;2022-12-07T05:31:19;10.52;;;8.77;;
10769;SDS011;5437;50.852;4.438;2022-12-07T05:33:45;9.90;;;8.32;;
10769;SDS011;5437;50.852;4.438;2022-12-07T05:36:11;12.27;;;8.18;;
10769;SDS011;5437;50.852;4.438;2022-12-07T05:38:38;11.98;;;8.02;;
10769;SDS011;5437;50.852;4.438;2022-12-07T05:41:05;10.73;;;8.20;;
10769;SDS011;5437;50.852;4.438;2022-12-07T05:43:31;9.98;;;8.13;;
10769;SDS011;5437;50.852;4.438;2022-12-07T05:45:57;11.82;;;8.10;;
10769;SDS011;5437;50.852;4.438;2022-12-07T05:48:23;11.73;;;8.20;;
10769;SDS011;5437;50.852;4.438;2022-12-07T05:50:50;11.50;;;8.40;;
10769;SDS011;5437;50.852;4.438;2022-12-07T05:53:16;12.20;;;8.35;;
10769;SDS011;5437;50.852;4.438;2022-12-07T05:55:43;11.10;;;8.40;;
10769;SDS011;5437;50.852;4.438;2022-12-07T05:58:09;10.07;;;8.13;;
10769;SDS011;5437;50.852;4.438;2022-12-07T06:00:54;11.45;;;7.60;;
10769;SDS011;5437;50.852;4.438;2022-12-07T06:03:22;10.00;;;7.80;;
10769;SDS011;5437;50.852;4.438;2022-12-07T06:05:48;10.52;;;7.78;;
10769;SDS011;5437;50.852;4.438;2022-12-07T06:08:14;9.15;;;7.63;;
10769;SDS011;5437;50.852;4.438;2022-12-07T06:10:40;10.43;;;7.13;;
10769;SDS011;5437;50.852;4.438;2022-12-07T06:13:06;11.80;;;7.88;;
10769;SDS011;5437;50.852;4.438;2022-12-07T06:15:34;9.35;;;7.13;;
10769;SDS011;5437;50.852;4.438;2022-12-07T06:18:01;12.10;;;7.60;;
10769;SDS011;5437;50.852;4.438;2022-12-07T06:20:27;13.40;;;8.15;;
10769;SDS011;5437;50.852;4.438;2022-12-07T06:22:53;8.27;;;7.43;;
10769;SDS011;5437;50.852;4.438;2022-12-07T06:25:19;9.85;;;7.53;;
10769;SDS011;5437;50.852;4.438;2022-12-07T06:27:45;8.38;;;7.05;;
10769;SDS011;5437;50.852;4.438;2022-12-07T06:30:11;9.60;;;7.00;;
10769;SDS011;5437;50.852;4.438;2022-12-07T06:32:37;10.95;;;7.95;;
10769;SDS011;5437;50.852;4.438;2022-12-07T06:35:03;10.15;;;7.43;;
10769;SDS011;5437;50.852;4.438;2022-12-07T06:37:29;11.45;;;7.30;;
10769;SDS011;5437;50.852;4.438;2022-12-07T06:39:55;10.15;;;7.43;;
10769;SDS011;5437;50.852;4.438;2022-12-07T06:42:21;10.77;;;6.88;;
10769;SDS011;5437;50.852;4.438;2022-12-07T06:44:47;8.63;;;6.93;;
10769;SDS011;5437;50.852;4.438;2022-12-07T06:47:14;8.30;;;6.40;;
10769;SDS011;5437;50.852;4.438;2022-12-07T06:49:40;9.48;;;7.40;;
10769;SDS011;5437;50.852;4.438;2022-12-07T06:52:06;9.63;;;7.13;;
10769;SDS011;5437;50.852;4.438;2022-12-07T06:54:32;10.63;;;6.75;;
10769;SDS011;5437;50.852;4.438;2022-12-07T06:56:58;8.57;;;6.70;;
10769;SDS011;5437;50.852;4.438;2022-12-07T06:59:24;10.73;;;7.80;;
10769;SDS011;5437;50.852;4.438;2022-12-07T07:01:50;8.05;;;6.75;;
10769;SDS011;5437;50.852;4.438;2022-12-07T07:04:16;10.07;;;7.85;;
10769;SDS011;5437;50.852;4.438;2022-12-07T07:06:42;9.23;;;7.38;;
10769;SDS011;5437;50.852;4.438;2022-12-07T07:09:08;10.07;;;7.72;;
10769;SDS011;5437;50.852;4.438;2022-12-07T07:11:34;9.45;;;7.63;;
10769;SDS011;5437;50.852;4.438;2022-12-07T07:14:00;9.80;;;7.65;;
10769;SDS011;5437;50.852;4.438;2022-12-07T07:16:27;10.05;;;7.03;;
10769;SDS011;5437;50.852;4.438;2022-12-07T07:18:54;11.77;;;7.50;;
10769;SDS011;5437;50.852;4.438;2022-12-07T07:21:21;8.27;;;7.03;;
10769;SDS011;5437;50.852;4.438;2022-12-07T07:23:47;10.25;;;6.78;;
10769;SDS011;5437;50.852;4.438;2022-12-07T07:26:13;11.73;;;7.13;;
10769;SDS011;5437;50.852;4.438;2022-12-07T07:28:39;11.60;;;6.97;;
10769;SDS011;5437;50.852;4.438;2022-12-07T07:31:05;8.13;;;7.18;;
10769;SDS011;5437;50.852;4.438;2022-12-07T07:33:31;8.40;;;6.88;;
10769;SDS011;5437;50.852;4.438;2022-12-07T07:35:57;10.38;;;7.13;;
10769;SDS011;5437;50.852;4.438;2022-12-07T07:38:23;11.40;;;7.20;;
10769;SDS011;5437;50.852;4.438;2022-12-07T07:40:49;8.85;;;7.07;;
10769;SDS011;5437;50.852;4.438;2022-12-07T07:43:15;8.80;;;7.25;;
10769;SDS011;5437;50.852;4.438;2022-12-07T07:45:41;7.93;;;7.03;;
10769;SDS011;5437;50.852;4.438;2022-12-07T07:48:07;8.27;;;6.88;;
10769;SDS011;5437;50.852;4.438;2022-12-07T07:50:33;10.82;;;7.70;;
10769;SDS011;5437;50.852;4.438;2022-12-07T07:52:59;9.55;;;7.10;;
10769;SDS011;5437;50.852;4.438;2022-12-07T07:55:25;9.88;;;7.00;;
10769;SDS011;5437;50.852;4.438;2022-12-07T07:57:51;10.13;;;7.18;;
10769;SDS011;5437;50.852;4.438;2022-12-07T08:00:17;9.32;;;7.25;;
10769;SDS011;5437;50.852;4.438;2022-12-07T08:02:43;10.05;;;7.30;;
10769;SDS011;5437;50.852;4.438;2022-12-07T08:05:11;10.70;;;7.68;;
10769;SDS011;5437;50.852;4.438;2022-12-07T08:07:37;9.25;;;7.03;;
10769;SDS011;5437;50.852;4.438;2022-12-07T08:10:03;8.88;;;6.85;;
10769;SDS011;5437;50.852;4.438;2022-12-07T08:12:30;10.38;;;7.00;;
10769;SDS011;5437;50.852;4.438;2022-12-07T08:14:56;11.40;;;7.15;;
10769;SDS011;5437;50.852;4.438;2022-12-07T08:17:22;10.70;;;6.93;;
10769;SDS011;5437;50.852;4.438;2022-12-07T08:19:48;8.93;;;6.78;;
10769;SDS011;5437;50.852;4.438;2022-12-07T08:22:14;9.90;;;6.90;;
10769;SDS011;5437;50.852;4.438;2022-12-07T08:24:40;9.85;;;6.95;;
10769;SDS011;5437;50.852;4.438;2022-12-07T08:27:06;9.85;;;7.25;;
10769;SDS011;5437;50.852;4.438;2022-12-07T08:29:32;8.45;;;7.00;;
10769;SDS011;5437;50.852;4.438;2022-12-07T08:31:58;10.15;;;7.75;;
10769;SDS011;5437;50.852;4.438;2022-12-07T08:34:26;8.88;;;7.47;;
10769;SDS011;5437;50.852;4.438;2022-12-07T08:36:52;10.02;;;7.65;;
10769;SDS011;5437;50.852;4.438;2022-12-07T08:39:18;8.70;;;7.53;;
10769;SDS011;5437;50.852;4.438;2022-12-07T08:41:44;10.57;;;8.55;;
10769;SDS011;5437;50.852;4.438;2022-12-07T08:44:10;9.70;;;7.72;;
10769;SDS011;5437;50.852;4.438;2022-12-07T08:46:48;11.20;;;8.15;;
10769;SDS011;5437;50.852;4.438;2022-12-07T08:49:23;10.35;;;7.38;;
10769;SDS011;5437;50.852;4.438;2022-12-07T08:51:50;7.63;;;6.82;;
10769;SDS011;5437;50.852;4.438;2022-12-07T08:54:17;9.70;;;7.07;;
10769;SDS011;5437;50.852;4.438;2022-12-07T08:56:44;9.40;;;7.13;;
10769;SDS011;5437;50.852;4.438;2022-12-07T08:59:12;9.77;;;6.65;;
10769;SDS011;5437;50.852;4.438;2022-12-07T09:01:39;8.15;;;6.10;;
10769;SDS011;5437;50.852;4.438;2022-12-07T09:04:07;8.63;;;6.00;;
10769;SDS011;5437;50.852;4.438;2022-12-07T09:06:33;9.25;;;6.53;;
10769;SDS011;5437;50.852;4.438;2022-12-07T09:08:59;7.68;;;6.10;;
10769;SDS011;5437;50.852;4.438;2022-12-07T09:11:26;8.55;;;6.10;;
10769;SDS011;5437;50.852;4.438;2022-12-07T09:13:52;9.90;;;6.07;;
10769;SDS011;5437;50.852;4.438;2022-12-07T09:16:18;9.10;;;5.80;;
10769;SDS011;5437;50.852;4.438;2022-12-07T09:18:44;8.35;;;5.80;;
10769;SDS011;5437;50.852;4.438;2022-12-07T09:21:10;8.20;;;5.30;;
10769;SDS011;5437;50.852;4.438;2022-12-07T09:23:36;7.30;;;5.22;;
10769;SDS011;5437;50.852;4.438;2022-12-07T09:26:03;7.78;;;5.00;;
10769;SDS011;5437;50.852;4.438;2022-12-07T09:28:30;6.43;;;5.68;;
10769;SDS011;5437;50.852;4.438;2022-12-07T09:30:56;7.72;;;4.90;;
10769;SDS011;5437;50.852;4.438;2022-12-07T09:33:22;7.90;;;5.00;;
10769;SDS011;5437;50.852;4.438;2022-12-07T09:35:49;8.10;;;4.97;;
10769;SDS011;5437;50.852;4.438;2022-12-07T09:38:15;6.78;;;4.68;;
10769;SDS011;5437;50.852;4.438;2022-12-07T09:40:41;10.05;;;4.95;;
10769;SDS011;5437;50.852;4.438;2022-12-07T09:43:12;6.10;;;4.78;;
10769;SDS011;5437;50.852;4.438;2022-12-07T09:45:39;7.63;;;4.70;;
10769;SDS011;5437;50.852;4.438;2022-12-07T09:48:05;7.78;;;4.60;;
10769;SDS011;5437;50.852;4.438;2022-12-07T09:50:36;6.25;;;4.20;;
10769;SDS011;5437;50.852;4.438;2022-12-07T09:53:09;6.78;;;4.60;;
10769;SDS011;5437;50.852;4.438;2022-12-07T09:55:37;5.28;;;4.47;;
10769;SDS011;5437;50.852;4.438;2022-12-07T09:58:04;6.55;;;4.70;;
10769;SDS011;5437;50.852;4.438;2022-12-07T10:00:30;5.82;;;4.18;;
10769;SDS011;5437;50.852;4.438;2022-12-07T10:02:57;7.97;;;4.93;;
10769;SDS011;5437;50.852;4.438;2022-12-07T10:05:27;9.88;;;4.93;;
10769;SDS011;5437;50.852;4.438;2022-12-07T10:07:54;7.68;;;5.00;;
10769;SDS011;5437;50.852;4.438;2022-12-07T10:10:24;7.60;;;5.03;;
10769;SDS011;5437;50.852;4.438;2022-12-07T10:12:59;6.80;;;5.30;;
10769;SDS011;5437;50.852;4.438;2022-12-07T10:15:42;7.80;;;5.50;;
10769;SDS011;5437;50.852;4.438;2022-12-07T10:20:47;8.68;;;5.15;;
10769;SDS011;5437;50.852;4.438;2022-12-07T10:23:15;10.13;;;6.20;;
10769;SDS011;5437;50.852;4.438;2022-12-07T10:25:42;9.50;;;5.78;;
10769;SDS011;5437;50.852;4.438;2022-12-07T10:30:45;7.53;;;5.72;;
10769;SDS011;5437;50.852;4.438;2022-12-07T10:33:26;8.13;;;5.40;;
10769;SDS011;5437;50.852;4.438;2022-12-07T10:35:53;9.68;;;5.80;;
10769;SDS011;5437;50.852;4.438;2022-12-07T10:38:19;8.65;;;5.40;;
10769;SDS011;5437;50.852;4.438;2022-12-07T10:40:45;6.47;;;5.65;;
10769;SDS011;5437;50.852;4.438;2022-12-07T11:01:10;7.22;;;4.90;;
10769;SDS011;5437;50.852;4.438;2022-12-07T11:03:58;7.63;;;4.50;;
10769;SDS011;5437;50.852;4.438;2022-12-07T11:06:32;9.27;;;5.10;;
10769;SDS011;5437;50.852;4.438;2022-12-07T11:09:03;6.93;;;4.70;;
10769;SDS011;5437;50.852;4.438;2022-12-07T11:16:50;7.22;;;5.13;;
10769;SDS011;5437;50.852;4.438;2022-12-07T11:22:04;7.35;;;5.18;;
10769;SDS011;5437;50.852;4.438;2022-12-07T11:32:22;6.45;;;4.60;;
10769;SDS011;5437;50.852;4.438;2022-12-07T11:37:18;9.05;;;5.00;;
10769;SDS011;5437;50.852;4.438;2022-12-07T11:39:52;7.85;;;4.90;;
10769;SDS011;5437;50.852;4.438;2022-12-07T11:44:53;8.85;;;5.30;;
10769;SDS011;5437;50.852;4.438;2022-12-07T11:54:56;6.55;;;4.78;;
10769;SDS011;5437;50.852;4.438;2022-12-07T11:57:33;7.32;;;4.30;;
10769;SDS011;5437;50.852;4.438;2022-12-07T12:00:03;6.95;;;4.60;;
10769;SDS011;5437;50.852;4.438;2022-12-07T12:02:34;10.18;;;4.63;;
10769;SDS011;5437;50.852;4.438;2022-12-07T12:05:06;6.97;;;4.38;;
10769;SDS011;5437;50.852;4.438;2022-12-07T12:07:38;4.30;;;3.60;;
10769;SDS011;5437;50.852;4.438;2022-12-07T12:10:21;8.10;;;4.35;;
10769;SDS011;5437;50.852;4.438;2022-12-07T12:13:01;6.28;;;3.80;;
10769;SDS011;5437;50.852;4.438;2022-12-07T12:15:41;7.47;;;3.70;;
10769;SDS011;5437;50.852;4.438;2022-12-07T12:20:55;4.20;;;2.67;;
10769;SDS011;5437;50.852;4.438;2022-12-07T12:23:32;6.28;;;3.30;;
10769;SDS011;5437;50.852;4.438;2022-12-07T12:26:05;4.93;;;3.10;;
10769;SDS011;5437;50.852;4.438;2022-12-07T12:31:14;6.07;;;3.40;;
10769;SDS011;5437;50.852;4.438;2022-12-07T12:33:47;5.07;;;3.10;;
10769;SDS011;5437;50.852;4.438;2022-12-07T12:46:44;6.43;;;3.17;;
10769;SDS011;5437;50.852;4.438;2022-12-07T12:51:42;3.50;;;2.20;;
10769;SDS011;5437;50.852;4.438;2022-12-07T12:54:18;3.05;;;2.17;;
10769;SDS011;5437;50.852;4.438;2022-12-07T12:59:24;3.78;;;1.88;;
10769;SDS011;5437;50.852;4.438;2022-12-07T13:01:55;3.10;;;1.85;;
10769;SDS011;5437;50.852;4.438;2022-12-07T13:04:26;4.90;;;2.10;;
10769;SDS011;5437;50.852;4.438;2022-12-07T13:06:52;1.88;;;1.75;;
10769;SDS011;5437;50.852;4.438;2022-12-07T13:09:20;3.92;;;2.17;;
10769;SDS011;5437;50.852;4.438;2022-12-07T13:11:47;5.55;;;2.13;;
10769;SDS011;5437;50.852;4.438;2022-12-07T13:16:59;3.92;;;1.90;;
10769;SDS011;5437;50.852;4.438;2022-12-07T13:22:48;2.88;;;2.47;;
10769;SDS011;5437;50.852;4.438;2022-12-07T13:25:07;4.70;;;2.70;;
10769;SDS011;5437;50.852;4.438;2022-12-07T13:27:34;5.32;;;2.72;;
10769;SDS011;5437;50.852;4.438;2022-12-07T13:30:03;5.32;;;2.45;;
10769;SDS011;5437;50.852;4.438;2022-12-07T13:32:33;4.85;;;2.55;;
10769;SDS011;5437;50.852;4.438;2022-12-07T13:35:00;3.47;;;2.20;;
10769;SDS011;5437;50.852;4.438;2022-12-07T13:37:27;6.32;;;2.92;;
10769;SDS011;5437;50.852;4.438;2022-12-07T13:39:54;5.10;;;3.10;;
10769;SDS011;5437;50.852;4.438;2022-12-07T13:44:53;3.65;;;2.58;;
10769;SDS011;5437;50.852;4.438;2022-12-07T13:49:52;5.68;;;2.42;;
10769;SDS011;5437;50.852;4.438;2022-12-07T13:52:23;4.43;;;2.30;;
10769;SDS011;5437;50.852;4.438;2022-12-07T13:57:16;3.67;;;2.33;;
10769;SDS011;5437;50.852;4.438;2022-12-07T13:59:42;2.95;;;2.58;;
10769;SDS011;5437;50.852;4.438;2022-12-07T14:02:19;3.05;;;1.90;;
10769;SDS011;5437;50.852;4.438;2022-12-07T14:04:46;4.53;;;2.38;;
10769;SDS011;5437;50.852;4.438;2022-12-07T14:07:18;4.50;;;2.53;;
10769;SDS011;5437;50.852;4.438;2022-12-07T14:09:53;4.38;;;2.22;;
10769;SDS011;5437;50.852;4.438;2022-12-07T14:12:19;6.03;;;2.10;;
10769;SDS011;5437;50.852;4.438;2022-12-07T14:14:48;2.65;;;1.60;;
10769;SDS011;5437;50.852;4.438;2022-12-07T14:17:18;1.60;;;1.30;;
10769;SDS011;5437;50.852;4.438;2022-12-07T14:24:47;4.35;;;2.30;;
10769;SDS011;5437;50.852;4.438;2022-12-07T14:27:17;2.97;;;2.22;;
10769;SDS011;5437;50.852;4.438;2022-12-07T14:29:43;3.72;;;2.22;;
10769;SDS011;5437;50.852;4.438;2022-12-07T14:32:30;3.53;;;2.67;;
10769;SDS011;5437;50.852;4.438;2022-12-07T14:35:00;3.90;;;2.55;;
10769;SDS011;5437;50.852;4.438;2022-12-07T14:37:27;4.22;;;2.80;;
10769;SDS011;5437;50.852;4.438;2022-12-07T14:39:53;3.35;;;2.70;;
10769;SDS011;5437;50.852;4.438;2022-12-07T14:42:19;3.60;;;3.30;;
10769;SDS011;5437;50.852;4.438;2022-12-07T14:44:45;5.07;;;3.72;;
10769;SDS011;5437;50.852;4.438;2022-12-07T14:47:12;5.93;;;4.45;;
10769;SDS011;5437;50.852;4.438;2022-12-07T14:49:38;6.38;;;4.50;;
10769;SDS011;5437;50.852;4.438;2022-12-07T14:52:04;5.65;;;4.72;;
10769;SDS011;5437;50.852;4.438;2022-12-07T14:54:31;5.82;;;4.97;;
10769;SDS011;5437;50.852;4.438;2022-12-07T14:56:57;10.02;;;7.30;;
10769;SDS011;5437;50.852;4.438;2022-12-07T14:59:23;9.43;;;4.63;;
10769;SDS011;5437;50.852;4.438;2022-12-07T15:01:50;5.93;;;4.20;;
10769;SDS011;5437;50.852;4.438;2022-12-07T15:04:16;3.80;;;2.95;;
10769;SDS011;5437;50.852;4.438;2022-12-07T15:06:48;6.47;;;3.58;;
10769;SDS011;5437;50.852;4.438;2022-12-07T15:09:19;3.15;;;2.60;;
10769;SDS011;5437;50.852;4.438;2022-12-07T15:11:45;5.97;;;3.20;;
10769;SDS011;5437;50.852;4.438;2022-12-07T15:14:11;5.00;;;2.70;;
10769;SDS011;5437;50.852;4.438;2022-12-07T15:16:39;3.80;;;2.40;;
10769;SDS011;5437;50.852;4.438;2022-12-07T15:19:07;4.05;;;2.60;;
10769;SDS011;5437;50.852;4.438;2022-12-07T15:21:36;5.13;;;2.65;;
10769;SDS011;5437;50.852;4.438;2022-12-07T15:24:02;5.10;;;3.10;;
10769;SDS011;5437;50.852;4.438;2022-12-07T15:26:28;7.38;;;4.38;;
10769;SDS011;5437;50.852;4.438;2022-12-07T15:28:54;4.32;;;2.80;;
10769;SDS011;5437;50.852;4.438;2022-12-07T15:31:20;5.57;;;2.70;;
10769;SDS011;5437;50.852;4.438;2022-12-07T15:33:46;3.67;;;2.50;;
10769;SDS011;5437;50.852;4.438;2022-12-07T15:36:18;3.95;;;2.15;;
10769;SDS011;5437;50.852;4.438;2022-12-07T15:38:45;4.88;;;2.33;;
10769;SDS011;5437;50.852;4.438;2022-12-07T15:41:11;3.47;;;2.40;;
10769;SDS011;5437;50.852;4.438;2022-12-07T15:43:37;4.75;;;2.10;;
10769;SDS011;5437;50.852;4.438;2022-12-07T15:46:36;3.28;;;2.10;;
10769;SDS011;5437;50.852;4.438;2022-12-07T15:49:03;3.33;;;2.20;;
10769;SDS011;5437;50.852;4.438;2022-12-07T15:51:29;5.03;;;2.15;;
10769;SDS011;5437;50.852;4.438;2022-12-07T15:53:56;4.60;;;2.45;;
10769;SDS011;5437;50.852;4.438;2022-12-07T15:56:23;5.03;;;2.72;;
10769;SDS011;5437;50.852;4.438;2022-12-07T15:58:49;5.15;;;2.80;;
10769;SDS011;5437;50.852;4.438;2022-12-07T16:01:16;3.55;;;2.80;;
10769;SDS011;5437;50.852;4.438;2022-12-07T16:03:43;5.82;;;3.47;;
10769;SDS011;5437;50.852;4.438;2022-12-07T16:06:09;6.78;;;3.05;;
10769;SDS011;5437;50.852;4.438;2022-12-07T16:08:36;6.18;;;3.20;;
10769;SDS011;5437;50.852;4.438;2022-12-07T16:11:05;7.00;;;3.10;;
10769;SDS011;5437;50.852;4.438;2022-12-07T16:13:32;3.97;;;2.72;;
10769;SDS011;5437;50.852;4.438;2022-12-07T16:15:58;3.53;;;2.70;;
10769;SDS011;5437;50.852;4.438;2022-12-07T16:18:27;2.70;;;2.20;;
10769;SDS011;5437;50.852;4.438;2022-12-07T16:20:53;3.10;;;2.30;;
10769;SDS011;5437;50.852;4.438;2022-12-07T16:23:19;3.83;;;2.60;;
10769;SDS011;5437;50.852;4.438;2022-12-07T16:25:45;2.85;;;2.60;;
10769;SDS011;5437;50.852;4.438;2022-12-07T16:28:11;4.10;;;2.92;;
10769;SDS011;5437;50.852;4.438;2022-12-07T16:30:37;5.20;;;3.00;;
10769;SDS011;5437;50.852;4.438;2022-12-07T16:33:03;4.95;;;3.67;;
10769;SDS011;5437;50.852;4.438;2022-12-07T16:35:29;5.28;;;3.60;;
10769;SDS011;5437;50.852;4.438;2022-12-07T16:37:55;4.38;;;3.10;;
10769;SDS011;5437;50.852;4.438;2022-12-07T16:40:23;4.43;;;3.80;;
10769;SDS011;5437;50.852;4.438;2022-12-07T16:42:49;5.80;;;3.83;;
10769;SDS011;5437;50.852;4.438;2022-12-07T16:45:15;5.28;;;3.55;;
10769;SDS011;5437;50.852;4.438;2022-12-07T16:47:41;5.45;;;3.70;;
10769;SDS011;5437;50.852;4.438;2022-12-07T16:50:07;5.03;;;4.13;;
10769;SDS011;5437;50.852;4.438;2022-12-07T16:52:33;5.15;;;4.35;;
10769;SDS011;5437;50.852;4.438;2022-12-07T16:54:59;5.88;;;4.30;;
10769;SDS011;5437;50.852;4.438;2022-12-07T16:57:25;4.80;;;4.30;;
10769;SDS011;5437;50.852;4.438;2022-12-07T16:59:51;6.60;;;4.20;;
10769;SDS011;5437;50.852;4.438;2022-12-07T17:02:17;5.78;;;4.10;;